»·PEaware :: N105M L52-L88

N105M :: L52-L88

FLIGHT INFORMATION

Flight Status: Arrived
Operator: Privately registered:
United States
More flights under this callsign
Pilot: Anonymous 26479 (26479)
Aircraft: CESSNA 172 SKYHAWK
(C172)
More flights by this aircraft type
Origin: L52 Oceano Co
United States
Destination: L88 New Cuyama
United States
More flights between these airports :: More routes between these airports
Route:
File this flight plan on PilotEdge
Remarks:
Altitude:
(Current/Filed)
7,200ft
Speed:
(Current/Filed)
140kts
Departed: 08-Oct-19 02:46 PM
Arrived: 08-Oct-19 03:20 PM
Distance/Time
Traveled:
47nm/0:34
Distance/Time
To Go:
Arrived

Flight Plot

Page will automatically refresh every two minutes.


Map Options




Map Legend


Flown Route
Filed Route
Departure Airport
Arrival Airport
Navaid (VOR, NDB)
Fix

Horizontal Profiles

Position Reports

Time Latitude Longitude Heading Altitude Ground
Speed
08-Oct-19 14:35 35.103452 -120.624821 213 17ft 0kts
08-Oct-19 14:36 35.103452 -120.624821 213 17ft 0kts
08-Oct-19 14:37 35.103452 -120.624821 213 17ft 0kts
08-Oct-19 14:38 35.103452 -120.624821 213 17ft 0kts
08-Oct-19 14:39 35.103439 -120.624832 215 17ft 0kts
08-Oct-19 14:40 35.103392 -120.624900 245 17ft 0kts
08-Oct-19 14:41 35.103392 -120.624901 245 17ft 0kts
08-Oct-19 14:42 35.103377 -120.625387 218 17ft 10kts
08-Oct-19 14:43 35.100138 -120.620704 120 17ft 19kts
08-Oct-19 14:44 35.099537 -120.619496 68 17ft 0kts
08-Oct-19 14:45 35.099537 -120.619496 68 17ft 0kts
08-Oct-19 14:46 35.101002 -120.621332 304 17ft 56kts
08-Oct-19 14:47 35.107691 -120.642404 279 814ft 71kts
08-Oct-19 14:47 35.108485 -120.644244 121 1480ft 66kts
08-Oct-19 14:49 35.101614 -120.615786 67 2251ft 91kts
08-Oct-19 14:50 35.106470 -120.593507 59 3031ft 79kts
08-Oct-19 14:50 35.112571 -120.579032 41 3520ft 84kts
08-Oct-19 14:51 35.123300 -120.569447 32 4046ft 80kts
08-Oct-19 14:53 35.143616 -120.550639 35 5062ft 72kts
08-Oct-19 14:53 35.151748 -120.532198 80 5625ft 85kts
08-Oct-19 14:54 35.147322 -120.509727 113 6002ft 106kts
08-Oct-19 14:55 35.132329 -120.480081 122 6588ft 111kts
08-Oct-19 14:56 35.116277 -120.449483 106 7130ft 111kts
08-Oct-19 14:57 35.105414 -120.409881 96 7199ft 131kts
08-Oct-19 14:58 35.093130 -120.374012 100 7252ft 123kts
08-Oct-19 14:59 35.093661 -120.339363 72 7161ft 134kts
08-Oct-19 15:00 35.103313 -120.294963 73 7019ft 137kts
08-Oct-19 15:01 35.109253 -120.249322 91 6897ft 137kts
08-Oct-19 15:02 35.102910 -120.200095 104 6043ft 158kts
08-Oct-19 15:03 35.092850 -120.149412 83 5033ft 149kts
08-Oct-19 15:04 35.099064 -120.101451 97 4546ft 150kts
08-Oct-19 15:05 35.088773 -120.052650 110 3991ft 148kts
08-Oct-19 15:06 35.070736 -120.006672 119 3200ft 151kts
08-Oct-19 15:07 35.053801 -119.968249 106 3736ft 118kts
08-Oct-19 15:08 35.041156 -119.928585 105 3935ft 125kts
08-Oct-19 15:09 35.026129 -119.890228 118 4270ft 118kts
08-Oct-19 15:10 35.006341 -119.855558 117 4373ft 124kts
08-Oct-19 15:11 34.993220 -119.813377 113 3579ft 142kts
08-Oct-19 15:12 34.980001 -119.770540 110 2893ft 110kts
08-Oct-19 15:13 34.966910 -119.742430 96 2869ft 77kts
08-Oct-19 15:14 34.956308 -119.716569 91 3298ft 89kts
08-Oct-19 15:15 34.938897 -119.691872 116 3071ft 105kts
08-Oct-19 15:16 34.927905 -119.659269 108 2643ft 101kts
08-Oct-19 15:17 34.934093 -119.655161 283 2781ft 76kts
08-Oct-19 15:18 34.938071 -119.681290 302 2241ft 75kts
08-Oct-19 15:19 34.942249 -119.690676 301 2163ft 5kts
08-Oct-19 15:20 34.942523 -119.691096 308 2159ft 0kts
08-Oct-19 15:21 34.942521 -119.691150 260 2159ft 0kts
08-Oct-19 15:22 34.934252 -119.671568 297 2508ft 79kts
08-Oct-19 15:23 34.942521 -119.691150 260 2159ft 0kts
08-Oct-19 15:24 34.942521 -119.691150 260 2159ft 0kts

Navigation Log

Ident Type
Flight plan parsing failed, navigation log unavailable